sensor_id;sensor_type;location;lat;lon;timestamp;P1;durP1;ratioP1;P2;durP2;ratioP2
25962;SDS011;13760;52.588;13.406;2022-09-09T00:00:37;13.77;;;11.02;;
25962;SDS011;13760;52.588;13.406;2022-09-09T00:03:10;11.52;;;10.32;;
25962;SDS011;13760;52.588;13.406;2022-09-09T00:05:57;11.98;;;10.77;;
25962;SDS011;13760;52.588;13.406;2022-09-09T00:08:34;13.45;;;11.38;;
25962;SDS011;13760;52.588;13.406;2022-09-09T00:11:18;13.25;;;11.85;;
25962;SDS011;13760;52.588;13.406;2022-09-09T00:13:53;12.70;;;11.20;;
25962;SDS011;13760;52.588;13.406;2022-09-09T00:16:27;13.50;;;11.88;;
25962;SDS011;13760;52.588;13.406;2022-09-09T00:19:31;14.52;;;11.30;;
25962;SDS011;13760;52.588;13.406;2022-09-09T00:22:18;12.75;;;10.68;;
25962;SDS011;13760;52.588;13.406;2022-09-09T00:24:49;14.23;;;10.98;;
25962;SDS011;13760;52.588;13.406;2022-09-09T00:33:30;15.98;;;11.13;;
25962;SDS011;13760;52.588;13.406;2022-09-09T00:35:58;11.93;;;10.73;;
25962;SDS011;13760;52.588;13.406;2022-09-09T00:41:10;12.20;;;10.93;;
25962;SDS011;13760;52.588;13.406;2022-09-09T00:43:53;11.20;;;10.07;;
25962;SDS011;13760;52.588;13.406;2022-09-09T00:46:29;12.68;;;11.07;;
25962;SDS011;13760;52.588;13.406;2022-09-09T00:49:13;12.10;;;10.40;;
25962;SDS011;13760;52.588;13.406;2022-09-09T00:59:48;11.25;;;10.13;;
25962;SDS011;13760;52.588;13.406;2022-09-09T01:10:50;11.93;;;10.75;;
25962;SDS011;13760;52.588;13.406;2022-09-09T01:13:22;11.50;;;10.02;;
25962;SDS011;13760;52.588;13.406;2022-09-09T01:15:50;14.65;;;11.20;;
25962;SDS011;13760;52.588;13.406;2022-09-09T01:18:20;12.52;;;10.10;;
25962;SDS011;13760;52.588;13.406;2022-09-09T01:21:03;14.55;;;11.70;;
25962;SDS011;13760;52.588;13.406;2022-09-09T01:26:35;12.30;;;10.93;;
25962;SDS011;13760;52.588;13.406;2022-09-09T01:29:08;13.52;;;11.75;;
25962;SDS011;13760;52.588;13.406;2022-09-09T01:31:51;13.30;;;11.90;;
25962;SDS011;13760;52.588;13.406;2022-09-09T01:34:22;13.32;;;11.93;;
25962;SDS011;13760;52.588;13.406;2022-09-09T01:39:30;14.35;;;11.85;;
25962;SDS011;13760;52.588;13.406;2022-09-09T01:41:57;17.60;;;12.18;;
25962;SDS011;13760;52.588;13.406;2022-09-09T01:44:23;13.43;;;12.02;;
25962;SDS011;13760;52.588;13.406;2022-09-09T01:46:50;14.13;;;11.48;;
25962;SDS011;13760;52.588;13.406;2022-09-09T01:49:16;14.13;;;11.38;;
25962;SDS011;13760;52.588;13.406;2022-09-09T01:51:43;13.70;;;11.65;;
25962;SDS011;13760;52.588;13.406;2022-09-09T01:54:11;12.70;;;11.40;;
25962;SDS011;13760;52.588;13.406;2022-09-09T01:56:40;12.32;;;11.02;;
25962;SDS011;13760;52.588;13.406;2022-09-09T01:59:48;12.00;;;10.73;;
25962;SDS011;13760;52.588;13.406;2022-09-09T02:02:22;12.52;;;11.18;;
25962;SDS011;13760;52.588;13.406;2022-09-09T02:05:10;12.98;;;10.88;;
25962;SDS011;13760;52.588;13.406;2022-09-09T02:07:40;12.90;;;11.45;;
25962;SDS011;13760;52.588;13.406;2022-09-09T02:12:42;12.15;;;10.90;;
25962;SDS011;13760;52.588;13.406;2022-09-09T02:15:26;12.30;;;11.00;;
25962;SDS011;13760;52.588;13.406;2022-09-09T02:18:00;14.93;;;11.23;;
25962;SDS011;13760;52.588;13.406;2022-09-09T02:20:28;13.18;;;11.73;;
25962;SDS011;13760;52.588;13.406;2022-09-09T02:22:57;12.25;;;11.05;;
25962;SDS011;13760;52.588;13.406;2022-09-09T02:25:24;12.73;;;11.38;;
25962;SDS011;13760;52.588;13.406;2022-09-09T02:27:54;12.13;;;10.90;;
25962;SDS011;13760;52.588;13.406;2022-09-09T02:30:23;13.13;;;11.18;;
25962;SDS011;13760;52.588;13.406;2022-09-09T02:32:49;16.00;;;11.75;;
25962;SDS011;13760;52.588;13.406;2022-09-09T02:35:19;13.85;;;11.77;;
25962;SDS011;13760;52.588;13.406;2022-09-09T02:37:49;14.35;;;11.70;;
25962;SDS011;13760;52.588;13.406;2022-09-09T02:40:17;13.73;;;11.60;;
25962;SDS011;13760;52.588;13.406;2022-09-09T02:42:44;12.48;;;11.10;;
25962;SDS011;13760;52.588;13.406;2022-09-09T02:45:12;14.45;;;11.80;;
25962;SDS011;13760;52.588;13.406;2022-09-09T02:50:29;12.45;;;11.15;;
25962;SDS011;13760;52.588;13.406;2022-09-09T02:53:01;15.98;;;10.60;;
25962;SDS011;13760;52.588;13.406;2022-09-09T02:55:39;14.15;;;11.98;;
25962;SDS011;13760;52.588;13.406;2022-09-09T02:58:09;12.82;;;11.55;;
25962;SDS011;13760;52.588;13.406;2022-09-09T03:00:38;12.13;;;10.85;;
25962;SDS011;13760;52.588;13.406;2022-09-09T03:03:05;12.02;;;10.82;;
25962;SDS011;13760;52.588;13.406;2022-09-09T03:05:33;18.98;;;10.30;;
25962;SDS011;13760;52.588;13.406;2022-09-09T03:08:00;12.68;;;10.77;;
25962;SDS011;13760;52.588;13.406;2022-09-09T03:10:27;12.18;;;10.73;;
25962;SDS011;13760;52.588;13.406;2022-09-09T03:12:52;12.63;;;10.32;;
25962;SDS011;13760;52.588;13.406;2022-09-09T03:15:18;13.77;;;10.90;;
25962;SDS011;13760;52.588;13.406;2022-09-09T03:17:44;11.68;;;10.48;;
25962;SDS011;13760;52.588;13.406;2022-09-09T03:20:09;11.82;;;10.63;;
25962;SDS011;13760;52.588;13.406;2022-09-09T03:22:35;12.95;;;11.40;;
25962;SDS011;13760;52.588;13.406;2022-09-09T03:25:01;14.02;;;10.77;;
25962;SDS011;13760;52.588;13.406;2022-09-09T03:27:28;15.02;;;10.85;;
25962;SDS011;13760;52.588;13.406;2022-09-09T03:29:54;12.27;;;10.48;;
25962;SDS011;13760;52.588;13.406;2022-09-09T03:32:21;11.80;;;10.55;;
25962;SDS011;13760;52.588;13.406;2022-09-09T03:34:47;11.75;;;10.55;;
25962;SDS011;13760;52.588;13.406;2022-09-09T03:37:15;13.18;;;10.60;;
25962;SDS011;13760;52.588;13.406;2022-09-09T03:39:42;13.07;;;10.60;;
25962;SDS011;13760;52.588;13.406;2022-09-09T03:42:08;14.05;;;11.13;;
25962;SDS011;13760;52.588;13.406;2022-09-09T03:44:34;12.48;;;11.20;;
25962;SDS011;13760;52.588;13.406;2022-09-09T03:47:00;13.85;;;11.98;;
25962;SDS011;13760;52.588;13.406;2022-09-09T03:49:26;15.48;;;11.15;;
25962;SDS011;13760;52.588;13.406;2022-09-09T03:51:54;12.13;;;10.80;;
25962;SDS011;13760;52.588;13.406;2022-09-09T03:54:22;14.63;;;11.57;;
25962;SDS011;13760;52.588;13.406;2022-09-09T03:56:49;11.25;;;10.15;;
25962;SDS011;13760;52.588;13.406;2022-09-09T03:59:15;12.07;;;10.68;;
25962;SDS011;13760;52.588;13.406;2022-09-09T04:01:41;14.98;;;11.32;;
25962;SDS011;13760;52.588;13.406;2022-09-09T04:04:07;13.15;;;10.15;;
25962;SDS011;13760;52.588;13.406;2022-09-09T04:06:34;12.93;;;10.90;;
25962;SDS011;13760;52.588;13.406;2022-09-09T04:09:00;13.63;;;9.93;;
25962;SDS011;13760;52.588;13.406;2022-09-09T04:11:28;12.35;;;9.63;;
25962;SDS011;13760;52.588;13.406;2022-09-09T04:13:54;10.90;;;9.80;;
25962;SDS011;13760;52.588;13.406;2022-09-09T04:16:20;10.57;;;9.48;;
25962;SDS011;13760;52.588;13.406;2022-09-09T04:18:47;11.90;;;10.40;;
25962;SDS011;13760;52.588;13.406;2022-09-09T04:21:13;11.80;;;9.27;;
25962;SDS011;13760;52.588;13.406;2022-09-09T04:23:40;11.43;;;9.88;;
25962;SDS011;13760;52.588;13.406;2022-09-09T04:26:06;12.05;;;10.80;;
25962;SDS011;13760;52.588;13.406;2022-09-09T04:28:33;12.45;;;11.15;;
25962;SDS011;13760;52.588;13.406;2022-09-09T04:31:06;11.05;;;9.93;;
25962;SDS011;13760;52.588;13.406;2022-09-09T04:33:34;10.07;;;8.70;;
25962;SDS011;13760;52.588;13.406;2022-09-09T04:36:03;9.23;;;8.32;;
25962;SDS011;13760;52.588;13.406;2022-09-09T04:38:28;14.40;;;10.27;;
25962;SDS011;13760;52.588;13.406;2022-09-09T04:40:54;11.25;;;9.35;;
25962;SDS011;13760;52.588;13.406;2022-09-09T04:43:20;12.48;;;9.38;;
25962;SDS011;13760;52.588;13.406;2022-09-09T04:45:47;14.07;;;9.30;;
25962;SDS011;13760;52.588;13.406;2022-09-09T04:48:14;14.98;;;9.00;;
25962;SDS011;13760;52.588;13.406;2022-09-09T04:50:39;11.80;;;8.98;;
25962;SDS011;13760;52.588;13.406;2022-09-09T04:53:05;12.27;;;9.35;;
25962;SDS011;13760;52.588;13.406;2022-09-09T04:55:32;10.55;;;9.27;;
25962;SDS011;13760;52.588;13.406;2022-09-09T04:58:03;14.70;;;8.95;;
25962;SDS011;13760;52.588;13.406;2022-09-09T05:00:30;12.85;;;8.88;;
25962;SDS011;13760;52.588;13.406;2022-09-09T05:02:58;13.32;;;9.52;;
25962;SDS011;13760;52.588;13.406;2022-09-09T05:05:28;11.57;;;9.70;;
25962;SDS011;13760;52.588;13.406;2022-09-09T05:07:59;10.85;;;9.30;;
25962;SDS011;13760;52.588;13.406;2022-09-09T05:10:26;10.40;;;9.32;;
25962;SDS011;13760;52.588;13.406;2022-09-09T05:12:52;22.40;;;9.75;;
25962;SDS011;13760;52.588;13.406;2022-09-09T05:15:19;15.63;;;9.55;;
25962;SDS011;13760;52.588;13.406;2022-09-09T05:17:45;15.70;;;10.32;;
25962;SDS011;13760;52.588;13.406;2022-09-09T05:20:11;16.00;;;10.43;;
25962;SDS011;13760;52.588;13.406;2022-09-09T05:22:37;12.82;;;9.57;;
25962;SDS011;13760;52.588;13.406;2022-09-09T05:25:03;14.38;;;10.38;;
25962;SDS011;13760;52.588;13.406;2022-09-09T05:27:34;10.73;;;9.63;;
25962;SDS011;13760;52.588;13.406;2022-09-09T05:30:00;11.88;;;9.57;;
25962;SDS011;13760;52.588;13.406;2022-09-09T05:32:29;17.08;;;9.85;;
25962;SDS011;13760;52.588;13.406;2022-09-09T05:34:57;13.77;;;9.80;;
25962;SDS011;13760;52.588;13.406;2022-09-09T05:37:26;12.18;;;10.50;;
25962;SDS011;13760;52.588;13.406;2022-09-09T05:39:52;11.68;;;10.27;;
25962;SDS011;13760;52.588;13.406;2022-09-09T05:42:18;11.35;;;10.07;;
25962;SDS011;13760;52.588;13.406;2022-09-09T05:44:43;14.05;;;9.73;;
25962;SDS011;13760;52.588;13.406;2022-09-09T05:47:09;15.75;;;10.73;;
25962;SDS011;13760;52.588;13.406;2022-09-09T05:49:36;15.38;;;10.07;;
25962;SDS011;13760;52.588;13.406;2022-09-09T05:52:02;13.73;;;10.38;;
25962;SDS011;13760;52.588;13.406;2022-09-09T05:54:29;15.65;;;9.90;;
25962;SDS011;13760;52.588;13.406;2022-09-09T05:56:54;12.60;;;8.52;;
25962;SDS011;13760;52.588;13.406;2022-09-09T05:59:20;12.07;;;8.85;;
25962;SDS011;13760;52.588;13.406;2022-09-09T06:01:48;9.77;;;8.60;;
25962;SDS011;13760;52.588;13.406;2022-09-09T06:04:14;11.68;;;8.95;;
25962;SDS011;13760;52.588;13.406;2022-09-09T06:06:40;14.23;;;8.43;;
25962;SDS011;13760;52.588;13.406;2022-09-09T06:09:07;12.20;;;8.60;;
25962;SDS011;13760;52.588;13.406;2022-09-09T06:11:37;12.87;;;7.87;;
25962;SDS011;13760;52.588;13.406;2022-09-09T06:14:04;11.63;;;8.23;;
25962;SDS011;13760;52.588;13.406;2022-09-09T06:16:30;9.88;;;8.23;;
25962;SDS011;13760;52.588;13.406;2022-09-09T06:18:57;12.50;;;8.10;;
25962;SDS011;13760;52.588;13.406;2022-09-09T06:23:51;12.63;;;7.57;;
25962;SDS011;13760;52.588;13.406;2022-09-09T06:26:19;13.10;;;7.40;;
25962;SDS011;13760;52.588;13.406;2022-09-09T06:28:45;10.55;;;7.85;;
25962;SDS011;13760;52.588;13.406;2022-09-09T06:31:12;11.23;;;7.43;;
25962;SDS011;13760;52.588;13.406;2022-09-09T06:33:40;15.95;;;8.23;;
25962;SDS011;13760;52.588;13.406;2022-09-09T06:36:16;14.63;;;7.57;;
25962;SDS011;13760;52.588;13.406;2022-09-09T06:38:52;11.85;;;6.95;;
25962;SDS011;13760;52.588;13.406;2022-09-09T06:41:19;12.60;;;6.97;;
25962;SDS011;13760;52.588;13.406;2022-09-09T06:43:45;10.90;;;6.88;;
25962;SDS011;13760;52.588;13.406;2022-09-09T06:46:13;12.43;;;6.80;;
25962;SDS011;13760;52.588;13.406;2022-09-09T06:48:46;11.38;;;6.60;;
25962;SDS011;13760;52.588;13.406;2022-09-09T06:53:42;11.77;;;5.68;;
25962;SDS011;13760;52.588;13.406;2022-09-09T06:58:35;8.05;;;5.80;;
25962;SDS011;13760;52.588;13.406;2022-09-09T07:01:10;11.93;;;6.10;;
25962;SDS011;13760;52.588;13.406;2022-09-09T07:03:38;11.43;;;6.28;;
25962;SDS011;13760;52.588;13.406;2022-09-09T07:06:05;9.93;;;5.50;;
25962;SDS011;13760;52.588;13.406;2022-09-09T07:08:32;9.40;;;5.20;;
25962;SDS011;13760;52.588;13.406;2022-09-09T07:11:06;8.93;;;5.10;;
25962;SDS011;13760;52.588;13.406;2022-09-09T07:13:33;8.38;;;4.68;;
25962;SDS011;13760;52.588;13.406;2022-09-09T07:16:09;8.82;;;5.00;;
25962;SDS011;13760;52.588;13.406;2022-09-09T07:18:39;10.98;;;5.70;;
25962;SDS011;13760;52.588;13.406;2022-09-09T07:21:11;8.48;;;4.97;;
25962;SDS011;13760;52.588;13.406;2022-09-09T07:26:34;10.90;;;5.10;;
25962;SDS011;13760;52.588;13.406;2022-09-09T07:29:02;10.52;;;5.10;;
25962;SDS011;13760;52.588;13.406;2022-09-09T07:31:34;11.88;;;4.97;;
25962;SDS011;13760;52.588;13.406;2022-09-09T07:34:23;7.85;;;4.13;;
25962;SDS011;13760;52.588;13.406;2022-09-09T07:36:55;7.93;;;4.07;;
25962;SDS011;13760;52.588;13.406;2022-09-09T07:39:31;8.55;;;4.40;;
25962;SDS011;13760;52.588;13.406;2022-09-09T07:42:09;8.25;;;3.90;;
25962;SDS011;13760;52.588;13.406;2022-09-09T07:44:39;6.57;;;3.90;;
25962;SDS011;13760;52.588;13.406;2022-09-09T07:47:27;9.10;;;4.03;;
25962;SDS011;13760;52.588;13.406;2022-09-09T07:49:59;7.10;;;3.30;;
25962;SDS011;13760;52.588;13.406;2022-09-09T07:52:29;7.00;;;3.25;;
25962;SDS011;13760;52.588;13.406;2022-09-09T07:54:54;7.65;;;2.75;;
25962;SDS011;13760;52.588;13.406;2022-09-09T07:57:21;5.95;;;2.80;;
25962;SDS011;13760;52.588;13.406;2022-09-09T07:59:47;6.47;;;2.70;;
25962;SDS011;13760;52.588;13.406;2022-09-09T08:02:15;8.23;;;3.03;;
25962;SDS011;13760;52.588;13.406;2022-09-09T08:04:41;6.07;;;2.75;;
25962;SDS011;13760;52.588;13.406;2022-09-09T08:07:10;6.35;;;2.75;;
25962;SDS011;13760;52.588;13.406;2022-09-09T08:09:36;7.35;;;2.28;;
25962;SDS011;13760;52.588;13.406;2022-09-09T08:12:01;5.32;;;2.85;;
25962;SDS011;13760;52.588;13.406;2022-09-09T08:14:27;7.40;;;2.40;;
25962;SDS011;13760;52.588;13.406;2022-09-09T08:16:53;6.35;;;2.45;;
25962;SDS011;13760;52.588;13.406;2022-09-09T08:19:19;6.90;;;2.40;;
25962;SDS011;13760;52.588;13.406;2022-09-09T08:21:45;8.50;;;2.38;;
25962;SDS011;13760;52.588;13.406;2022-09-09T08:24:11;7.20;;;2.70;;
25962;SDS011;13760;52.588;13.406;2022-09-09T08:26:41;6.47;;;2.70;;
25962;SDS011;13760;52.588;13.406;2022-09-09T08:29:08;7.15;;;2.50;;
25962;SDS011;13760;52.588;13.406;2022-09-09T08:31:39;5.00;;;2.17;;
25962;SDS011;13760;52.588;13.406;2022-09-09T08:34:07;7.60;;;2.20;;
25962;SDS011;13760;52.588;13.406;2022-09-09T08:36:35;9.20;;;2.15;;
25962;SDS011;13760;52.588;13.406;2022-09-09T08:39:04;5.93;;;2.45;;
25962;SDS011;13760;52.588;13.406;2022-09-09T08:52:28;8.15;;;2.20;;
25962;SDS011;13760;52.588;13.406;2022-09-09T08:55:05;6.57;;;1.90;;
25962;SDS011;13760;52.588;13.406;2022-09-09T08:57:50;5.38;;;2.33;;
25962;SDS011;13760;52.588;13.406;2022-09-09T09:00:22;8.32;;;2.10;;
25962;SDS011;13760;52.588;13.406;2022-09-09T09:02:55;6.78;;;2.00;;
25962;SDS011;13760;52.588;13.406;2022-09-09T09:05:32;3.83;;;1.67;;
25962;SDS011;13760;52.588;13.406;2022-09-09T09:10:45;4.93;;;1.83;;
25962;SDS011;13760;52.588;13.406;2022-09-09T09:13:35;4.20;;;1.98;;
25962;SDS011;13760;52.588;13.406;2022-09-09T09:16:07;4.90;;;1.75;;
25962;SDS011;13760;52.588;13.406;2022-09-09T09:18:55;6.07;;;1.80;;
25962;SDS011;13760;52.588;13.406;2022-09-09T09:21:27;3.80;;;1.77;;
25962;SDS011;13760;52.588;13.406;2022-09-09T09:24:14;3.38;;;1.60;;
25962;SDS011;13760;52.588;13.406;2022-09-09T09:26:47;4.68;;;1.77;;
25962;SDS011;13760;52.588;13.406;2022-09-09T09:29:14;7.13;;;1.90;;
25962;SDS011;13760;52.588;13.406;2022-09-09T09:31:50;6.68;;;1.63;;
25962;SDS011;13760;52.588;13.406;2022-09-09T09:34:19;5.63;;;2.00;;
25962;SDS011;13760;52.588;13.406;2022-09-09T09:36:48;6.72;;;1.52;;
25962;SDS011;13760;52.588;13.406;2022-09-09T09:41:53;6.43;;;1.77;;
25962;SDS011;13760;52.588;13.406;2022-09-09T09:44:29;9.52;;;1.77;;
25962;SDS011;13760;52.588;13.406;2022-09-09T09:49:34;5.65;;;2.30;;
25962;SDS011;13760;52.588;13.406;2022-09-09T09:52:00;8.77;;;1.70;;
25962;SDS011;13760;52.588;13.406;2022-09-09T09:54:49;7.07;;;1.83;;
25962;SDS011;13760;52.588;13.406;2022-09-09T09:57:16;8.98;;;2.00;;
25962;SDS011;13760;52.588;13.406;2022-09-09T09:59:43;4.20;;;1.50;;
25962;SDS011;13760;52.588;13.406;2022-09-09T10:07:45;6.95;;;1.55;;
25962;SDS011;13760;52.588;13.406;2022-09-09T10:10:23;5.97;;;1.83;;
25962;SDS011;13760;52.588;13.406;2022-09-09T10:15:30;5.63;;;1.90;;
25962;SDS011;13760;52.588;13.406;2022-09-09T10:18:12;4.93;;;1.60;;
25962;SDS011;13760;52.588;13.406;2022-09-09T10:24:30;5.95;;;1.52;;
25962;SDS011;13760;52.588;13.406;2022-09-09T10:27:24;3.55;;;1.55;;
25962;SDS011;13760;52.588;13.406;2022-09-09T10:30:14;7.75;;;1.70;;
25962;SDS011;13760;52.588;13.406;2022-09-09T10:43:59;5.47;;;1.75;;
25962;SDS011;13760;52.588;13.406;2022-09-09T10:52:17;5.18;;;1.60;;
25962;SDS011;13760;52.588;13.406;2022-09-09T10:55:10;4.47;;;1.60;;
25962;SDS011;13760;52.588;13.406;2022-09-09T10:57:41;7.38;;;1.52;;
25962;SDS011;13760;52.588;13.406;2022-09-09T11:00:19;5.20;;;1.60;;
25962;SDS011;13760;52.588;13.406;2022-09-09T11:02:56;4.63;;;1.23;;
25962;SDS011;13760;52.588;13.406;2022-09-09T11:05:36;4.15;;;1.60;;
25962;SDS011;13760;52.588;13.406;2022-09-09T11:08:12;5.80;;;1.60;;
25962;SDS011;13760;52.588;13.406;2022-09-09T11:11:02;5.65;;;1.45;;
25962;SDS011;13760;52.588;13.406;2022-09-09T11:16:19;2.25;;;1.27;;
25962;SDS011;13760;52.588;13.406;2022-09-09T11:18:50;3.22;;;1.58;;
25962;SDS011;13760;52.588;13.406;2022-09-09T11:21:25;6.82;;;1.80;;
25962;SDS011;13760;52.588;13.406;2022-09-09T11:23:59;4.50;;;1.60;;
25962;SDS011;13760;52.588;13.406;2022-09-09T11:26:38;6.15;;;1.30;;
25962;SDS011;13760;52.588;13.406;2022-09-09T11:29:20;3.22;;;1.30;;
25962;SDS011;13760;52.588;13.406;2022-09-09T11:43:02;4.28;;;1.30;;
25962;SDS011;13760;52.588;13.406;2022-09-09T11:45:30;6.30;;;1.23;;
25962;SDS011;13760;52.588;13.406;2022-09-09T11:47:59;2.45;;;1.20;;
25962;SDS011;13760;52.588;13.406;2022-09-09T11:53:02;4.50;;;1.40;;
25962;SDS011;13760;52.588;13.406;2022-09-09T11:55:31;2.08;;;1.10;;
25962;SDS011;13760;52.588;13.406;2022-09-09T11:58:00;3.72;;;1.33;;
25962;SDS011;13760;52.588;13.406;2022-09-09T12:00:29;9.45;;;1.30;;
25962;SDS011;13760;52.588;13.406;2022-09-09T12:03:05;5.00;;;1.30;;
25962;SDS011;13760;52.588;13.406;2022-09-09T12:05:53;4.80;;;1.60;;
25962;SDS011;13760;52.588;13.406;2022-09-09T12:08:27;6.82;;;1.58;;
25962;SDS011;13760;52.588;13.406;2022-09-09T12:10:55;4.63;;;1.27;;
25962;SDS011;13760;52.588;13.406;2022-09-09T12:13:25;5.07;;;1.27;;
25962;SDS011;13760;52.588;13.406;2022-09-09T12:15:53;5.35;;;1.30;;
25962;SDS011;13760;52.588;13.406;2022-09-09T12:18:21;1.85;;;1.02;;
25962;SDS011;13760;52.588;13.406;2022-09-09T12:23:45;3.92;;;1.15;;
25962;SDS011;13760;52.588;13.406;2022-09-09T12:29:01;3.28;;;1.10;;
25962;SDS011;13760;52.588;13.406;2022-09-09T12:31:47;4.28;;;1.25;;
25962;SDS011;13760;52.588;13.406;2022-09-09T12:39:53;3.80;;;1.60;;
25962;SDS011;13760;52.588;13.406;2022-09-09T12:42:22;5.32;;;1.23;;
25962;SDS011;13760;52.588;13.406;2022-09-09T12:44:52;2.13;;;1.10;;
25962;SDS011;13760;52.588;13.406;2022-09-09T12:47:19;3.38;;;1.08;;
25962;SDS011;13760;52.588;13.406;2022-09-09T12:49:49;4.28;;;1.02;;
25962;SDS011;13760;52.588;13.406;2022-09-09T12:54:47;4.47;;;1.30;;
25962;SDS011;13760;52.588;13.406;2022-09-09T12:57:13;3.15;;;1.20;;
25962;SDS011;13760;52.588;13.406;2022-09-09T12:59:41;3.35;;;1.42;;
25962;SDS011;13760;52.588;13.406;2022-09-09T13:02:18;2.25;;;0.77;;
25962;SDS011;13760;52.588;13.406;2022-09-09T13:04:45;2.33;;;0.98;;
25962;SDS011;13760;52.588;13.406;2022-09-09T13:07:12;6.50;;;1.13;;
25962;SDS011;13760;52.588;13.406;2022-09-09T13:09:38;5.55;;;1.10;;
25962;SDS011;13760;52.588;13.406;2022-09-09T13:12:04;4.15;;;1.05;;
25962;SDS011;13760;52.588;13.406;2022-09-09T13:14:38;4.38;;;1.05;;
25962;SDS011;13760;52.588;13.406;2022-09-09T13:17:04;3.35;;;1.00;;
25962;SDS011;13760;52.588;13.406;2022-09-09T13:19:34;2.30;;;1.00;;
25962;SDS011;13760;52.588;13.406;2022-09-09T13:22:14;2.40;;;0.95;;
25962;SDS011;13760;52.588;13.406;2022-09-09T13:27:53;5.53;;;1.10;;
25962;SDS011;13760;52.588;13.406;2022-09-09T13:35:32;4.07;;;0.90;;
25962;SDS011;13760;52.588;13.406;2022-09-09T13:38:12;3.38;;;1.08;;
25962;SDS011;13760;52.588;13.406;2022-09-09T13:40:52;4.82;;;1.35;;
25962;SDS011;13760;52.588;13.406;2022-09-09T13:43:34;3.05;;;1.05;;
25962;SDS011;13760;52.588;13.406;2022-09-09T13:46:30;3.03;;;1.20;;
25962;SDS011;13760;52.588;13.406;2022-09-09T13:54:02;3.55;;;1.08;;
25962;SDS011;13760;52.588;13.406;2022-09-09T13:56:30;4.03;;;1.08;;
25962;SDS011;13760;52.588;13.406;2022-09-09T13:58:57;3.15;;;1.25;;
25962;SDS011;13760;52.588;13.406;2022-09-09T14:01:23;4.30;;;1.20;;
25962;SDS011;13760;52.588;13.406;2022-09-09T14:03:49;2.85;;;1.10;;
25962;SDS011;13760;52.588;13.406;2022-09-09T14:06:17;2.50;;;1.00;;
25962;SDS011;13760;52.588;13.406;2022-09-09T14:08:43;2.85;;;1.08;;
25962;SDS011;13760;52.588;13.406;2022-09-09T14:11:11;5.82;;;1.27;;
25962;SDS011;13760;52.588;13.406;2022-09-09T14:13:38;5.32;;;1.25;;
25962;SDS011;13760;52.588;13.406;2022-09-09T14:16:04;2.83;;;1.00;;
25962;SDS011;13760;52.588;13.406;2022-09-09T14:18:29;3.13;;;1.20;;
25962;SDS011;13760;52.588;13.406;2022-09-09T14:20:55;3.97;;;1.10;;
25962;SDS011;13760;52.588;13.406;2022-09-09T14:23:22;4.25;;;1.27;;
25962;SDS011;13760;52.588;13.406;2022-09-09T14:25:47;2.92;;;1.30;;
25962;SDS011;13760;52.588;13.406;2022-09-09T14:28:14;4.78;;;1.20;;
25962;SDS011;13760;52.588;13.406;2022-09-09T14:30:40;5.32;;;1.00;;
25962;SDS011;13760;52.588;13.406;2022-09-09T14:33:19;2.97;;;1.00;;
25962;SDS011;13760;52.588;13.406;2022-09-09T14:35:48;2.88;;;1.00;;
25962;SDS011;13760;52.588;13.406;2022-09-09T14:38:23;5.05;;;1.25;;
25962;SDS011;13760;52.588;13.406;2022-09-09T14:40:49;3.10;;;0.85;;
25962;SDS011;13760;52.588;13.406;2022-09-09T14:43:15;3.72;;;1.15;;
25962;SDS011;13760;52.588;13.406;2022-09-09T14:45:41;4.60;;;1.00;;
25962;SDS011;13760;52.588;13.406;2022-09-09T14:48:08;3.97;;;1.02;;
25962;SDS011;13760;52.588;13.406;2022-09-09T14:50:33;4.43;;;1.05;;
25962;SDS011;13760;52.588;13.406;2022-09-09T14:53:04;3.75;;;1.35;;
25962;SDS011;13760;52.588;13.406;2022-09-09T14:55:30;3.63;;;1.27;;
25962;SDS011;13760;52.588;13.406;2022-09-09T14:57:56;3.88;;;1.25;;
25962;SDS011;13760;52.588;13.406;2022-09-09T15:00:22;3.75;;;1.10;;
25962;SDS011;13760;52.588;13.406;2022-09-09T15:02:54;4.93;;;1.58;;
25962;SDS011;13760;52.588;13.406;2022-09-09T15:05:21;2.72;;;1.00;;
25962;SDS011;13760;52.588;13.406;2022-09-09T15:07:47;3.83;;;1.20;;
25962;SDS011;13760;52.588;13.406;2022-09-09T15:10:16;4.43;;;1.27;;
25962;SDS011;13760;52.588;13.406;2022-09-09T15:12:45;4.90;;;1.30;;
25962;SDS011;13760;52.588;13.406;2022-09-09T15:15:11;4.32;;;1.30;;
25962;SDS011;13760;52.588;13.406;2022-09-09T15:17:37;6.32;;;1.48;;
25962;SDS011;13760;52.588;13.406;2022-09-09T15:20:03;2.10;;;1.02;;
25962;SDS011;13760;52.588;13.406;2022-09-09T15:22:30;3.50;;;1.30;;
25962;SDS011;13760;52.588;13.406;2022-09-09T15:24:56;4.07;;;1.10;;
25962;SDS011;13760;52.588;13.406;2022-09-09T15:27:22;7.20;;;1.40;;
25962;SDS011;13760;52.588;13.406;2022-09-09T15:29:48;9.70;;;1.75;;
25962;SDS011;13760;52.588;13.406;2022-09-09T15:32:17;3.85;;;1.25;;
25962;SDS011;13760;52.588;13.406;2022-09-09T15:34:43;5.28;;;1.25;;
25962;SDS011;13760;52.588;13.406;2022-09-09T15:37:11;5.15;;;1.38;;
25962;SDS011;13760;52.588;13.406;2022-09-09T15:39:40;4.95;;;1.10;;
25962;SDS011;13760;52.588;13.406;2022-09-09T15:42:06;5.28;;;1.23;;
25962;SDS011;13760;52.588;13.406;2022-09-09T15:44:40;3.42;;;1.20;;
25962;SDS011;13760;52.588;13.406;2022-09-09T15:47:07;6.60;;;1.60;;
25962;SDS011;13760;52.588;13.406;2022-09-09T15:49:34;4.30;;;1.20;;
25962;SDS011;13760;52.588;13.406;2022-09-09T15:52:00;3.97;;;1.38;;
25962;SDS011;13760;52.588;13.406;2022-09-09T15:54:49;3.20;;;1.20;;
25962;SDS011;13760;52.588;13.406;2022-09-09T15:57:15;4.00;;;1.27;;
25962;SDS011;13760;52.588;13.406;2022-09-09T15:59:41;3.20;;;1.10;;
25962;SDS011;13760;52.588;13.406;2022-09-09T16:02:10;6.03;;;1.20;;
25962;SDS011;13760;52.588;13.406;2022-09-09T16:04:35;4.75;;;1.30;;
25962;SDS011;13760;52.588;13.406;2022-09-09T16:07:07;4.75;;;1.10;;
25962;SDS011;13760;52.588;13.406;2022-09-09T16:09:34;4.43;;;1.20;;
25962;SDS011;13760;52.588;13.406;2022-09-09T16:12:03;7.65;;;1.35;;
25962;SDS011;13760;52.588;13.406;2022-09-09T16:14:34;3.25;;;1.30;;
25962;SDS011;13760;52.588;13.406;2022-09-09T16:17:02;3.65;;;1.40;;
25962;SDS011;13760;52.588;13.406;2022-09-09T16:19:31;5.88;;;1.55;;
25962;SDS011;13760;52.588;13.406;2022-09-09T16:21:59;3.70;;;1.38;;
25962;SDS011;13760;52.588;13.406;2022-09-09T16:24:25;5.97;;;1.60;;
25962;SDS011;13760;52.588;13.406;2022-09-09T16:26:52;2.88;;;1.20;;
25962;SDS011;13760;52.588;13.406;2022-09-09T16:29:19;3.75;;;1.50;;
25962;SDS011;13760;52.588;13.406;2022-09-09T16:31:47;4.85;;;1.45;;
25962;SDS011;13760;52.588;13.406;2022-09-09T16:34:15;4.38;;;1.30;;
25962;SDS011;13760;52.588;13.406;2022-09-09T16:36:42;4.30;;;1.45;;
25962;SDS011;13760;52.588;13.406;2022-09-09T16:39:09;5.97;;;1.52;;
25962;SDS011;13760;52.588;13.406;2022-09-09T16:41:37;7.22;;;1.60;;
25962;SDS011;13760;52.588;13.406;2022-09-09T16:44:07;4.43;;;1.35;;
25962;SDS011;13760;52.588;13.406;2022-09-09T16:46:35;5.82;;;1.50;;
25962;SDS011;13760;52.588;13.406;2022-09-09T16:49:05;5.00;;;1.55;;
25962;SDS011;13760;52.588;13.406;2022-09-09T16:51:33;4.60;;;1.33;;
25962;SDS011;13760;52.588;13.406;2022-09-09T16:54:04;3.75;;;1.23;;
25962;SDS011;13760;52.588;13.406;2022-09-09T16:59:35;3.67;;;1.52;;
25962;SDS011;13760;52.588;13.406;2022-09-09T17:02:01;5.80;;;1.40;;
25962;SDS011;13760;52.588;13.406;2022-09-09T17:04:28;5.47;;;1.60;;